Impacts TAF Board INFO
FOR SITUATIONAL AWARENESS. NOT TO BE USED FOR FLIGHT PLANNING PURPOSES.
IDs:

KPHL - Philadelphia Intl, PA, US

Issued at 2046 UTC 13 Dec 2017
Updated at 2054 UTC 13 Dec 2017
Potential Impact None Slight Moderate High
Time1954Z 13/21Z 13/22Z 13/23Z 14/00Z 14/01Z 14/02Z 14/03Z 14/04Z 14/05Z 14/06Z 14/07Z 14/08Z 14/09Z>>
Type OBS PRVL PRVL PRVL PRVL PRVL PRVL PRVL PRVL PRVL PRVL PRVL PRVL PRVL
VIS 10 >6 >6 >6 >6 >6 >6 >6 5 5 2 2 2 2
CIG -- -- -- -- 50 50 50 50 25 25 15 15 15 15
Cover FEW FEW SCT SCT OVC OVC OVC OVC OVC OVC OVC OVC OVC OVC
FltCat VFR VFR VFR VFR VFR VFR VFR VFR MVFR MVFR IFR IFR IFR IFR
WX -- -- -- -- -- -- -- -- -SN -SN -SN -SN -SN -SN
WDir 290 280 270 270 250 250 250 250 VRB VRB VRB VRB VRB VRB
WSpd 19 16 15 15 7 7 7 7 3 3 3 3 3 3
WGst 28 26 23 23 -- -- -- -- -- -- -- -- -- --

Raw TAF
KPHL 132046Z 1321/1424 28016G26KT P6SM FEW050
  FM132200 27015G23KT P6SM SCT050 SCT150
  FM140000 25007KT P6SM BKN050 OVC100
  FM140400 VRB03KT 5SM -SN SCT015 OVC025
  FM140600 VRB03KT 2SM -SN BKN015 OVC025
  FM141300 31009KT 5SM -SN SCT015 OVC025
  FM141500 32012G19KT P6SM SCT025 BKN050
  FM141800 32015G23KT P6SM FEW050 SCT250
  FM142200 32012G18KT P6SM SCT250


Raw METAR
KPHL 131954Z 29019G28KT 10SM FEW055 FEW250 M01/M16 A2972 RMK AO2 PK WND 27028/1949 SLP062 T10061156
KPHL 131854Z 28019G27KT 10SM FEW055 FEW250 M01/M16 A2970 RMK AO2 PK WND 26031/1832 SLP058 T10061156
KPHL 131754Z 27023G30KT 10SM FEW055 FEW250 M01/M16 A2970 RMK AO2 PK WND 31031/1730 SLP056 T10061156 11006 21056 55002

METAR Board
Radar Display
Forecast Discussion

FOR SITUATIONAL AWARENESS. NOT TO BE USED FOR FLIGHT PLANNING PURPOSES.